Time;durP1;ratioP1;P1;durP2;ratioP2;P2;SDS_P1;SDS_P2;PMS_P1;PMS_P2;Temp;Humidity;BMP_temperature;BMP_pressure;BME280_temperature;BME280_humidity;BME280_pressure;Samples;Min_cycle;Max_cycle;Signal;HPM_P1;HPM_P2
2022/03/31 00:00:39;;;;;;;8.43;4.93;;;;;;;6.56;74.50;100130.78;5013785;28;20488;-42
2022/03/31 00:03:06;;;;;;;6.38;4.70;;;;;;;6.49;74.45;100127.09;5005160;28;20037;-44
2022/03/31 00:05:32;;;;;;;8.48;5.00;;;;;;;6.44;75.92;100127.53;5014056;28;20546;-42
2022/03/31 00:07:59;;;;;;;7.97;4.78;;;;;;;6.43;75.46;100130.34;5013242;28;20124;-43
2022/03/31 00:10:39;;;;;;;6.30;4.38;;;;;;;6.40;75.55;100125.31;5013359;28;20139;-42
2022/03/31 00:13:07;;;;;;;7.70;5.05;;;;;;;6.42;77.38;100120.72;5014443;28;20053;-43
2022/03/31 00:15:33;;;;;;;6.68;5.07;;;;;;;6.45;76.17;100125.69;5012883;28;20041;-43
2022/03/31 00:18:00;;;;;;;7.78;4.97;;;;;;;6.43;76.72;100123.22;5009696;28;20484;-44
2022/03/31 00:23:47;;;;;;;7.68;5.18;;;;;;;6.31;76.25;100121.78;4994750;28;20109;-43
2022/03/31 00:26:13;;;;;;;13.05;5.65;;;;;;;6.27;76.86;100112.47;5013864;28;20442;-43
2022/03/31 00:28:39;;;;;;;6.75;4.93;;;;;;;6.35;77.87;100112.53;5013593;28;20113;-46
2022/03/31 00:31:04;;;;;;;10.48;5.78;;;;;;;6.31;77.08;100108.50;5010611;28;20547;-48
2022/03/31 00:33:30;;;;;;;7.97;5.68;;;;;;;6.34;77.25;100122.28;5015317;28;20487;-43
2022/03/31 00:35:55;;;;;;;7.53;5.50;;;;;;;6.30;77.15;100107.69;5013518;28;20067;-45
2022/03/31 00:38:20;;;;;;;10.23;6.18;;;;;;;6.30;77.09;100131.56;5012921;28;20437;-42
2022/03/31 00:40:46;;;;;;;9.93;6.13;;;;;;;6.25;78.15;100120.56;5014243;28;20340;-45
2022/03/31 00:43:12;;;;;;;8.98;6.03;;;;;;;6.22;78.50;100122.69;5013694;28;20095;-43
2022/03/31 00:45:46;;;;;;;9.50;6.03;;;;;;;6.20;78.20;100116.72;5013641;28;20159;-42
2022/03/31 00:48:14;;;;;;;9.75;6.20;;;;;;;6.19;78.55;100118.50;5027763;28;20511;-42
2022/03/31 00:50:39;;;;;;;8.18;5.60;;;;;;;6.16;79.65;100105.53;5013630;28;20554;-44
2022/03/31 00:53:05;;;;;;;10.52;5.50;;;;;;;6.18;80.05;100108.06;5012898;28;20041;-45
2022/03/31 00:55:31;;;;;;;8.68;5.32;;;;;;;6.15;79.66;100114.50;5013852;28;20041;-45
2022/03/31 00:57:57;;;;;;;8.98;5.53;;;;;;;6.07;80.96;100117.06;5013616;28;20066;-45
2022/03/31 01:00:23;;;;;;;9.63;5.80;;;;;;;5.93;82.90;100121.03;5012108;28;20460;-42
2022/03/31 01:02:49;;;;;;;13.13;6.10;;;;;;;5.90;83.51;100114.19;5012994;28;20029;-46
2022/03/31 01:05:15;;;;;;;10.20;6.15;;;;;;;5.90;84.52;100116.03;5013659;28;20021;-45
2022/03/31 01:07:41;;;;;;;8.93;5.75;;;;;;;5.89;84.88;100109.91;5012619;28;20464;-46
2022/03/31 01:10:09;;;;;;;10.60;6.35;;;;;;;5.87;85.48;100097.75;5013303;28;20087;-44
2022/03/31 01:12:35;;;;;;;8.65;6.20;;;;;;;5.87;85.82;100106.56;5013967;28;20033;-42
2022/03/31 01:15:20;;;;;;;10.43;6.20;;;;;;;5.83;86.00;100101.72;5012364;28;20190;-46
2022/03/31 01:17:47;;;;;;;10.57;6.75;;;;;;;5.80;86.61;100094.88;5013387;28;20504;-44
2022/03/31 01:20:20;;;;;;;10.25;7.05;;;;;;;5.76;86.67;100093.50;5004014;28;20037;-43
2022/03/31 01:22:46;;;;;;;10.65;6.78;;;;;;;5.69;86.39;100097.75;5012423;28;20028;-44
2022/03/31 01:25:12;;;;;;;18.55;7.60;;;;;;;5.65;87.16;100085.75;5012881;28;20021;-44
2022/03/31 01:27:41;;;;;;;12.93;7.78;;;;;;;5.68;86.78;100088.13;5013903;28;20021;-42
2022/03/31 01:30:08;;;;;;;14.32;7.82;;;;;;;5.65;86.66;100089.25;5011827;28;20403;-45
2022/03/31 01:32:34;;;;;;;11.45;7.30;;;;;;;5.64;87.18;100079.63;5011281;28;20025;-45
2022/03/31 01:34:59;;;;;;;10.20;7.40;;;;;;;5.68;87.00;100085.47;5013277;28;20503;-42
2022/03/31 01:37:25;;;;;;;11.05;7.53;;;;;;;5.69;86.65;100089.81;5011430;28;20534;-43
2022/03/31 01:39:50;;;;;;;13.02;7.88;;;;;;;5.65;86.96;100091.06;5012652;28;20029;-45
2022/03/31 01:42:16;;;;;;;16.05;8.63;;;;;;;5.65;87.23;100089.25;5012971;28;20075;-45
2022/03/31 01:44:41;;;;;;;14.82;7.72;;;;;;;5.65;88.50;100088.41;5013549;28;20079;-42
2022/03/31 01:47:08;;;;;;;12.23;7.28;;;;;;;5.64;89.88;100089.41;5011857;28;20145;-46
2022/03/31 01:49:36;;;;;;;8.40;5.53;;;;;;;5.57;90.63;100090.00;5013395;28;20070;-46
2022/03/31 01:52:01;;;;;;;10.68;5.50;;;;;;;5.46;91.68;100078.75;5011624;28;20231;-44
2022/03/31 01:54:26;;;;;;;9.82;5.97;;;;;;;5.38;93.09;100080.31;5012890;28;20473;-47
2022/03/31 01:56:52;;;;;;;11.95;6.13;;;;;;;5.34;93.78;100076.28;5012060;28;20116;-43
2022/03/31 01:59:17;;;;;;;7.93;5.03;;;;;;;5.32;94.37;100080.06;5012143;28;20025;-43
2022/03/31 02:01:43;;;;;;;10.70;5.72;;;;;;;5.26;95.08;100072.72;5012062;28;20025;-44
2022/03/31 02:04:08;;;;;;;8.25;5.82;;;;;;;5.22;96.06;100075.63;5012521;28;20144;-43
2022/03/31 02:06:33;;;;;;;10.75;6.50;;;;;;;5.21;96.60;100075.78;5012566;28;20025;-42
2022/03/31 02:08:59;;;;;;;11.55;6.65;;;;;;;5.10;97.39;100076.81;5012752;28;20059;-45
2022/03/31 02:11:24;;;;;;;11.45;6.88;;;;;;;5.06;99.30;100075.44;5012489;28;20431;-42
2022/03/31 02:13:50;;;;;;;9.23;6.60;;;;;;;5.03;100.00;100073.91;5013377;28;20072;-41
2022/03/31 02:16:15;;;;;;;9.20;6.95;;;;;;;4.98;100.00;100068.22;5011003;28;20550;-44
2022/03/31 02:18:41;;;;;;;9.05;6.93;;;;;;;4.92;100.00;100078.53;5012540;28;20026;-43
2022/03/31 02:21:06;;;;;;;14.85;7.90;;;;;;;4.80;100.00;100070.78;5012662;28;20033;-43
2022/03/31 02:23:32;;;;;;;11.10;7.45;;;;;;;4.74;100.00;100068.69;5012191;28;20037;-43
2022/03/31 02:25:57;;;;;;;11.02;7.72;;;;;;;4.72;100.00;100062.72;5012503;28;20068;-45
2022/03/31 02:28:23;;;;;;;10.20;7.50;;;;;;;4.66;100.00;100065.91;5012108;28;20033;-44
2022/03/31 02:30:48;;;;;;;9.13;6.50;;;;;;;4.62;100.00;100053.97;5011594;28;20030;-44
2022/03/31 02:33:13;;;;;;;7.28;5.60;;;;;;;4.51;100.00;100049.66;5012630;28;20026;-47
2022/03/31 02:35:39;;;;;;;6.32;5.15;;;;;;;4.45;100.00;100052.88;5012668;28;20463;-43
2022/03/31 02:38:04;;;;;;;6.57;5.20;;;;;;;4.32;100.00;100053.16;5006547;28;20444;-43
2022/03/31 02:40:30;;;;;;;6.80;4.90;;;;;;;4.32;100.00;100050.53;5007155;28;20116;-43
2022/03/31 02:42:55;;;;;;;5.13;4.43;;;;;;;4.23;100.00;100048.72;4993476;28;20050;-43
2022/03/31 02:45:20;;;;;;;4.30;3.83;;;;;;;4.27;100.00;100053.56;4993839;28;20034;-44
2022/03/31 02:47:46;;;;;;;4.38;3.78;;;;;;;4.08;100.00;100056.22;5012349;28;20077;-43
2022/03/31 02:50:13;;;;;;;4.13;3.50;;;;;;;4.00;100.00;100062.19;5012497;28;20497;-43
2022/03/31 02:55:28;;;;;;;5.35;3.30;;;;;;;3.81;100.00;100048.97;5015372;28;20102;-42
2022/03/31 02:57:54;;;;;;;3.08;2.78;;;;;;;3.79;100.00;100048.28;5016230;28;20324;-42
2022/03/31 03:00:20;;;;;;;2.72;2.40;;;;;;;3.79;100.00;100049.13;5015238;28;20844;-44
2022/03/31 03:02:45;;;;;;;3.63;3.08;;;;;;;3.70;100.00;100044.63;5015491;28;20028;-45
2022/03/31 03:05:11;;;;;;;3.20;2.60;;;;;;;3.57;100.00;100031.69;5015885;28;20037;-43
2022/03/31 03:07:36;;;;;;;3.97;2.78;;;;;;;3.55;100.00;100023.91;5015806;28;20079;-43
2022/03/31 03:10:01;;;;;;;2.30;2.10;;;;;;;3.45;100.00;100017.78;5014579;28;20390;-43
2022/03/31 03:12:27;;;;;;;2.40;2.20;;;;;;;3.36;100.00;100027.34;5015166;28;20484;-47
2022/03/31 03:14:52;;;;;;;2.65;2.45;;;;;;;3.33;100.00;100027.63;5013792;28;20087;-46
2022/03/31 03:17:17;;;;;;;2.80;2.50;;;;;;;3.33;100.00;100027.63;5015570;28;20420;-43
2022/03/31 03:19:43;;;;;;;2.80;2.40;;;;;;;3.41;100.00;100024.31;5016292;28;20603;-44
2022/03/31 03:22:08;;;;;;;2.55;2.30;;;;;;;3.31;100.00;100023.44;5014725;28;20037;-45
2022/03/31 03:24:34;;;;;;;2.80;2.38;;;;;;;3.21;100.00;100012.00;5016166;28;20030;-43
2022/03/31 03:26:59;;;;;;;3.08;2.75;;;;;;;3.20;100.00;100021.75;4996287;28;20026;-47
2022/03/31 03:29:24;;;;;;;2.90;2.50;;;;;;;3.15;100.00;100016.03;4995970;28;20359;-43
2022/03/31 03:31:52;;;;;;;3.42;2.72;;;;;;;3.11;100.00;100014.63;4994142;28;20030;-42
2022/03/31 03:34:17;;;;;;;3.33;2.90;;;;;;;3.09;100.00;100020.03;5007695;28;20140;-43
2022/03/31 03:36:42;;;;;;;7.68;2.22;;;;;;;3.11;100.00;100017.28;5014709;28;20475;-44
2022/03/31 03:39:08;;;;;;;2.70;2.33;;;;;;;3.11;100.00;100018.09;5015442;28;20021;-40
2022/03/31 03:41:33;;;;;;;2.40;2.05;;;;;;;3.01;100.00;100027.78;5015031;28;20412;-45
2022/03/31 03:43:58;;;;;;;3.78;2.75;;;;;;;2.88;100.00;100027.16;5013582;28;20116;-43
2022/03/31 03:46:23;;;;;;;3.25;2.58;;;;;;;2.78;100.00;100022.69;5013910;28;20079;-42
2022/03/31 03:48:49;;;;;;;3.50;2.60;;;;;;;2.84;100.00;100028.41;5016048;28;20499;-42
2022/03/31 03:51:14;;;;;;;4.35;2.53;;;;;;;2.85;100.00;100023.00;5013711;28;20964;-45
2022/03/31 03:53:39;;;;;;;2.25;2.05;;;;;;;2.79;100.00;100026.16;5030044;28;20094;-43
2022/03/31 03:56:05;;;;;;;2.38;2.17;;;;;;;2.78;100.00;100037.66;5014571;28;20028;-43
2022/03/31 03:58:30;;;;;;;2.65;2.35;;;;;;;2.82;100.00;100033.81;5014746;28;20056;-43
2022/03/31 04:00:56;;;;;;;2.33;2.00;;;;;;;2.81;100.00;100032.13;5013389;28;20504;-45
2022/03/31 04:03:21;;;;;;;2.88;2.10;;;;;;;2.74;100.00;100034.44;5015261;28;20937;-41
2022/03/31 04:05:46;;;;;;;2.60;2.03;;;;;;;2.75;100.00;100037.91;5013728;28;20553;-45
2022/03/31 04:08:13;;;;;;;2.30;2.10;;;;;;;2.79;100.00;100026.97;5010537;28;20049;-42
2022/03/31 04:10:39;;;;;;;2.72;2.15;;;;;;;2.75;100.00;100024.72;5014441;28;20059;-43
2022/03/31 04:13:04;;;;;;;3.00;1.98;;;;;;;2.69;100.00;100017.34;5014079;28;20025;-43
2022/03/31 04:15:29;;;;;;;2.40;1.75;;;;;;;2.68;100.00;100020.94;5013124;28;20567;-43
2022/03/31 04:17:55;;;;;;;1.88;1.55;;;;;;;2.69;100.00;100033.19;5014844;28;20276;-42
2022/03/31 04:20:20;;;;;;;3.45;2.00;;;;;;;2.58;100.00;100032.28;5014300;28;20025;-43
2022/03/31 04:22:48;;;;;;;2.05;1.85;;;;;;;2.55;100.00;100023.81;5013731;28;20037;-44
2022/03/31 04:25:14;;;;;;;1.92;1.83;;;;;;;2.47;100.00;100027.06;5014156;28;20027;-43
2022/03/31 04:27:39;;;;;;;3.47;2.03;;;;;;;2.44;100.00;100029.97;5014884;28;20112;-43
2022/03/31 04:30:08;;;;;;;3.53;1.85;;;;;;;2.47;100.00;100024.44;5013026;28;20244;-45
2022/03/31 04:32:33;;;;;;;1.60;1.27;;;;;;;2.48;100.00;100031.41;5013232;28;20265;-42
2022/03/31 04:34:58;;;;;;;4.40;1.90;;;;;;;2.41;100.00;100033.72;5014207;28;20433;-42
2022/03/31 04:37:24;;;;;;;1.88;1.70;;;;;;;2.37;100.00;100031.44;5013476;28;20053;-41
2022/03/31 04:39:49;;;;;;;1.63;1.52;;;;;;;2.34;100.00;100032.56;5013325;28;20037;-41
2022/03/31 04:42:14;;;;;;;2.22;1.80;;;;;;;2.38;100.00;100033.13;5014087;28;20021;-43
2022/03/31 04:44:40;;;;;;;2.17;1.75;;;;;;;2.32;100.00;100042.38;5015037;28;20041;-46
2022/03/31 04:47:06;;;;;;;1.55;1.45;;;;;;;2.35;100.00;100036.84;5012480;28;20590;-43
2022/03/31 04:49:32;;;;;;;2.58;1.83;;;;;;;2.26;100.00;100034.13;5013853;28;20103;-45
2022/03/31 04:51:58;;;;;;;2.20;1.90;;;;;;;2.31;100.00;100039.84;5011764;28;20029;-43
2022/03/31 04:54:23;;;;;;;2.03;1.80;;;;;;;2.28;100.00;100042.78;4998960;28;20094;-42
2022/03/31 04:56:48;;;;;;;2.65;1.80;;;;;;;2.23;100.00;100033.44;4996035;28;20427;-43
2022/03/31 04:59:14;;;;;;;2.22;1.67;;;;;;;2.19;100.00;100033.81;4992301;28;20589;-42
2022/03/31 05:01:39;;;;;;;3.20;1.48;;;;;;;2.22;100.00;100047.59;4992126;28;20412;-41
2022/03/31 05:04:04;;;;;;;2.40;1.58;;;;;;;2.21;100.00;100039.81;4993623;28;20597;-42
2022/03/31 05:06:30;;;;;;;1.77;1.63;;;;;;;2.15;100.00;100040.31;4992919;28;20033;-42
2022/03/31 05:08:55;;;;;;;1.67;1.58;;;;;;;2.17;100.00;100036.59;4993263;28;20033;-44
2022/03/31 05:11:20;;;;;;;2.15;1.60;;;;;;;2.24;100.00;100029.00;5001935;28;20042;-45
2022/03/31 05:13:46;;;;;;;2.60;1.52;;;;;;;2.24;100.00;100037.75;4994774;28;20053;-43
2022/03/31 05:16:11;;;;;;;3.15;2.10;;;;;;;2.24;100.00;100034.25;5005872;28;20045;-46
2022/03/31 05:18:36;;;;;;;1.92;1.73;;;;;;;2.17;100.00;100039.22;4992106;28;20079;-43
2022/03/31 05:21:02;;;;;;;5.28;2.40;;;;;;;2.15;100.00;100040.31;4994072;28;20096;-44
2022/03/31 05:23:27;;;;;;;2.10;1.90;;;;;;;2.16;100.00;100034.91;4994058;28;20061;-44
2022/03/31 05:25:52;;;;;;;2.35;1.90;;;;;;;2.18;100.00;100034.78;4991376;28;20800;-43
2022/03/31 05:28:18;;;;;;;1.75;1.63;;;;;;;2.16;100.00;100036.72;4991667;28;20448;-42
2022/03/31 05:30:43;;;;;;;1.60;1.40;;;;;;;2.07;100.00;100037.47;4990512;28;20068;-42
2022/03/31 05:33:09;;;;;;;2.15;1.63;;;;;;;1.99;100.00;100044.19;4996245;28;20565;-42
2022/03/31 05:35:35;;;;;;;1.52;1.40;;;;;;;1.96;100.00;100040.97;4995196;28;20049;-44
2022/03/31 05:38:01;;;;;;;1.42;1.25;;;;;;;1.91;100.00;100045.78;4991348;28;20719;-41
2022/03/31 05:40:26;;;;;;;1.98;1.40;;;;;;;1.92;100.00;100040.41;5007168;28;20294;-41
2022/03/31 05:42:52;;;;;;;1.45;1.30;;;;;;;1.96;100.00;100044.44;4992319;28;20334;-44
2022/03/31 05:45:17;;;;;;;1.67;1.58;;;;;;;1.93;100.00;100049.94;4999068;28;20079;-41
2022/03/31 05:47:44;;;;;;;1.55;1.38;;;;;;;1.91;100.00;100053.69;4992682;28;20025;-43
2022/03/31 05:50:11;;;;;;;1.30;1.20;;;;;;;1.92;100.00;100050.94;4994432;28;20060;-42
2022/03/31 05:52:40;;;;;;;1.95;1.42;;;;;;;1.96;100.00;100052.34;4990594;28;20088;-42
2022/03/31 05:55:07;;;;;;;1.85;1.67;;;;;;;1.95;100.00;100045.41;4999560;28;20116;-42
2022/03/31 05:57:36;;;;;;;2.58;1.65;;;;;;;1.92;100.00;100042.19;4999082;28;20030;-46
2022/03/31 06:00:05;;;;;;;2.10;1.55;;;;;;;1.90;100.00;100036.22;4995070;28;20025;-44
2022/03/31 06:02:30;;;;;;;2.25;1.73;;;;;;;1.91;100.00;100045.78;4997284;28;20056;-43
2022/03/31 06:04:55;;;;;;;1.98;1.80;;;;;;;1.90;100.00;100038.84;4998914;28;20053;-42
2022/03/31 06:07:21;;;;;;;2.60;1.90;;;;;;;1.89;100.00;100042.44;4996285;28;20037;-44
2022/03/31 06:09:46;;;;;;;2.03;1.75;;;;;;;1.98;100.00;100041.69;5002256;28;20021;-43
2022/03/31 06:12:11;;;;;;;2.22;2.03;;;;;;;1.97;100.00;100042.63;5001430;28;20034;-42
2022/03/31 06:14:36;;;;;;;6.13;3.00;;;;;;;1.96;100.00;100044.44;4992480;28;20036;-43
2022/03/31 06:17:02;;;;;;;2.78;2.38;;;;;;;1.99;100.00;100040.75;4995927;28;20116;-42
2022/03/31 06:19:27;;;;;;;2.40;2.05;;;;;;;2.04;100.00;100043.84;5002655;28;20045;-42
2022/03/31 06:21:53;;;;;;;2.53;2.30;;;;;;;2.07;100.00;100034.81;5004957;28;20026;-45
2022/03/31 06:24:18;;;;;;;3.67;2.58;;;;;;;2.05;100.00;100037.59;4991849;28;20072;-42
2022/03/31 06:26:44;;;;;;;2.92;2.30;;;;;;;1.98;100.00;100042.50;4996438;28;20112;-42
2022/03/31 06:29:09;;;;;;;2.78;2.17;;;;;;;1.97;100.00;100038.22;5013157;28;20160;-42
2022/03/31 06:31:35;;;;;;;3.83;2.72;;;;;;;1.92;100.00;100047.44;5008839;28;20414;-43
2022/03/31 06:34:01;;;;;;;2.40;2.00;;;;;;;1.86;100.00;100043.53;5015362;28;20353;-43
2022/03/31 06:36:28;;;;;;;2.78;2.42;;;;;;;1.87;100.00;100042.56;4998690;28;20532;-44
2022/03/31 06:38:53;;;;;;;3.33;2.70;;;;;;;1.84;100.00;100043.66;5014811;28;20434;-44
2022/03/31 06:41:19;;;;;;;3.67;2.85;;;;;;;1.84;100.00;100042.81;5013525;28;20174;-43
2022/03/31 06:43:48;;;;;;;3.60;2.50;;;;;;;1.80;100.00;100034.34;5015860;28;20361;-43
2022/03/31 06:46:14;;;;;;;3.00;2.63;;;;;;;1.86;100.00;100041.72;5014540;28;20502;-41
2022/03/31 06:48:42;;;;;;;6.35;2.83;;;;;;;1.95;100.00;100040.16;5013243;28;20021;-42
2022/03/31 06:51:08;;;;;;;3.90;2.80;;;;;;;1.99;100.00;100041.56;5006557;28;20026;-42
2022/03/31 06:53:36;;;;;;;3.88;2.97;;;;;;;2.03;100.00;100042.97;5011879;28;20017;-42
2022/03/31 06:56:06;;;;;;;3.72;2.85;;;;;;;2.09;100.00;100052.19;5015047;28;20029;-44
2022/03/31 06:58:31;;;;;;;4.10;3.03;;;;;;;2.09;100.00;100052.19;5012548;28;20208;-41
2022/03/31 07:00:57;;;;;;;3.20;2.90;;;;;;;2.12;100.00;100051.09;5007482;28;20372;-43
2022/03/31 07:03:23;;;;;;;4.85;2.92;;;;;;;2.09;100.00;100056.59;5012532;28;20507;-43
2022/03/31 07:05:48;;;;;;;3.40;3.00;;;;;;;2.13;100.00;100052.78;5000881;28;20125;-43
2022/03/31 07:08:13;;;;;;;4.55;2.80;;;;;;;2.14;100.00;100052.66;5003601;28;20030;-42
2022/03/31 07:10:39;;;;;;;3.17;2.53;;;;;;;2.16;100.00;100048.06;5031071;28;20117;-43
2022/03/31 07:13:04;;;;;;;3.97;3.08;;;;;;;2.18;100.00;100038.25;5030561;28;20643;-42
2022/03/31 07:15:29;;;;;;;3.95;2.80;;;;;;;2.14;100.00;100031.56;5014345;28;20433;-42
2022/03/31 07:17:55;;;;;;;4.55;2.60;;;;;;;2.15;100.00;100042.94;5014108;28;20479;-42
2022/03/31 07:20:24;;;;;;;3.15;2.85;;;;;;;2.18;100.00;100055.84;4998726;28;20039;-42
2022/03/31 07:22:50;;;;;;;4.43;2.70;;;;;;;2.16;100.00;100041.97;5004071;28;20026;-42
2022/03/31 07:25:16;;;;;;;3.08;2.55;;;;;;;2.22;100.00;100044.94;4995633;28;20030;-41
2022/03/31 07:27:42;;;;;;;2.42;2.00;;;;;;;2.23;100.00;100037.88;5004236;28;20191;-41
2022/03/31 07:30:08;;;;;;;3.35;2.50;;;;;;;2.20;100.00;100041.59;4998617;28;20029;-44
2022/03/31 07:32:34;;;;;;;3.55;2.47;;;;;;;2.18;100.00;100040.88;4994866;28;20316;-45
2022/03/31 07:35:00;;;;;;;2.90;2.60;;;;;;;2.20;100.00;100038.94;5012432;28;20581;-42
2022/03/31 07:37:26;;;;;;;2.60;2.40;;;;;;;2.30;100.00;100043.47;5003635;28;20056;-43
2022/03/31 07:39:51;;;;;;;3.40;2.20;;;;;;;2.31;100.00;100043.34;4996497;28;20361;-44
2022/03/31 07:42:17;;;;;;;2.00;1.70;;;;;;;2.33;100.00;100041.41;4997317;28;20099;-43
2022/03/31 07:44:43;;;;;;;4.03;1.80;;;;;;;2.33;100.00;100049.31;4995083;28;20018;-47
2022/03/31 07:47:09;;;;;;;3.60;2.30;;;;;;;2.34;100.00;100047.50;5010761;28;20038;-43
2022/03/31 07:49:34;;;;;;;2.70;2.10;;;;;;;2.34;100.00;100040.47;4995056;28;20033;-44
2022/03/31 07:52:00;;;;;;;2.55;2.25;;;;;;;2.41;100.00;100040.75;4993929;28;20103;-46
2022/03/31 07:54:25;;;;;;;6.15;2.45;;;;;;;2.46;100.00;100038.59;5002919;28;20033;-43
2022/03/31 07:56:51;;;;;;;5.20;2.70;;;;;;;2.50;100.00;100040.00;5013611;28;20040;-45
2022/03/31 07:59:21;;;;;;;3.00;2.38;;;;;;;2.57;100.00;100038.50;5014712;28;20026;-43
2022/03/31 08:01:47;;;;;;;4.00;2.67;;;;;;;2.62;100.00;100040.78;5013916;28;20056;-43
2022/03/31 08:04:13;;;;;;;4.05;2.90;;;;;;;2.65;100.00;100048.44;5013725;28;20026;-46
2022/03/31 08:06:38;;;;;;;3.28;2.90;;;;;;;2.70;100.00;100035.69;5013319;28;20116;-45
2022/03/31 08:09:03;;;;;;;3.97;2.85;;;;;;;2.78;100.00;100030.59;5009100;28;20480;-41
2022/03/31 08:11:29;;;;;;;4.45;3.28;;;;;;;2.77;100.00;100039.47;5014533;28;20029;-43
2022/03/31 08:13:55;;;;;;;4.07;2.60;;;;;;;2.86;100.00;100029.09;5014096;28;20029;-47
2022/03/31 08:16:20;;;;;;;2.85;2.55;;;;;;;2.83;100.00;100032.81;5013095;28;20032;-43
2022/03/31 08:18:45;;;;;;;3.08;2.78;;;;;;;2.91;100.00;100037.47;5013346;28;20407;-42
2022/03/31 08:21:10;;;;;;;3.22;2.47;;;;;;;3.01;100.00;100034.88;5013205;28;20067;-42
2022/03/31 08:23:36;;;;;;;2.90;2.58;;;;;;;3.07;100.00;100031.69;5003171;28;20176;-42
2022/03/31 08:26:01;;;;;;;5.18;3.03;;;;;;;3.01;100.00;100037.50;5008232;28;20033;-47
2022/03/31 08:28:30;;;;;;;5.97;2.90;;;;;;;3.08;100.00;100034.19;5014664;28;20049;-44
2022/03/31 08:30:55;;;;;;;3.08;2.53;;;;;;;3.08;100.00;100028.09;5011178;28;20048;-44
2022/03/31 08:33:20;;;;;;;3.72;2.88;;;;;;;3.09;100.00;100033.22;5013006;28;20523;-45
2022/03/31 08:35:45;;;;;;;5.13;2.50;;;;;;;3.21;100.00;100026.06;5013333;28;20037;-45
2022/03/31 08:38:11;;;;;;;3.45;2.60;;;;;;;3.23;100.00;100028.56;5014315;28;20421;-42
2022/03/31 08:40:36;;;;;;;2.67;2.33;;;;;;;3.23;100.00;100028.56;5014211;28;20037;-44
2022/03/31 08:43:02;;;;;;;4.07;2.47;;;;;;;3.28;100.00;100023.72;5014229;28;20752;-47
2022/03/31 08:45:29;;;;;;;2.88;2.40;;;;;;;3.40;100.00;100027.91;5012799;28;20037;-45
2022/03/31 08:47:58;;;;;;;3.22;2.65;;;;;;;3.53;100.00;100017.09;5014553;28;20492;-47
2022/03/31 08:50:23;;;;;;;4.60;2.70;;;;;;;3.66;100.00;100024.75;5012284;28;20422;-43
2022/03/31 08:52:49;;;;;;;3.60;2.40;;;;;;;3.76;100.00;100027.44;5014155;28;20100;-42
2022/03/31 08:55:15;;;;;;;7.53;2.60;;;;;;;3.93;100.00;100027.56;5014101;28;20265;-44
2022/03/31 08:57:43;;;;;;;3.30;2.40;;;;;;;3.95;100.00;100027.44;5013988;28;20515;-42
2022/03/31 09:00:10;;;;;;;2.55;2.25;;;;;;;3.93;100.00;100032.03;5012750;28;20519;-43
2022/03/31 09:02:36;;;;;;;3.08;2.20;;;;;;;3.85;100.00;100030.09;5013402;28;20451;-42
2022/03/31 09:05:07;;;;;;;2.72;2.45;;;;;;;3.74;100.00;100031.03;5013562;28;20121;-43
2022/03/31 09:07:33;;;;;;;3.47;2.40;;;;;;;3.77;100.00;100035.22;5012902;28;20056;-42
2022/03/31 09:09:58;;;;;;;4.32;2.25;;;;;;;3.63;100.00;100052.28;5011757;28;20025;-42
2022/03/31 09:12:26;;;;;;;3.92;2.58;;;;;;;3.54;100.00;100055.72;5013206;28;20367;-42
2022/03/31 09:14:52;;;;;;;3.95;2.80;;;;;;;3.53;100.00;100054.91;5012895;28;20030;-42
2022/03/31 09:17:18;;;;;;;2.83;2.50;;;;;;;3.53;100.00;100054.03;5012717;28;20500;-42
2022/03/31 09:19:44;;;;;;;3.53;2.65;;;;;;;3.62;100.00;100057.72;5014180;28;20504;-44
2022/03/31 09:22:10;;;;;;;3.97;2.80;;;;;;;3.69;100.00;100040.34;5012661;28;20333;-43
2022/03/31 09:24:35;;;;;;;2.85;2.50;;;;;;;3.78;100.00;100058.00;5013436;28;20061;-42
2022/03/31 09:27:02;;;;;;;3.05;2.50;;;;;;;3.77;100.00;100052.84;5011884;28;20357;-43
2022/03/31 09:29:30;;;;;;;3.65;2.90;;;;;;;3.68;100.00;100049.22;5013951;28;20032;-43
2022/03/31 09:32:25;;;;;;;4.78;2.70;;;;;;;3.73;100.00;100061.06;5005202;28;20037;-43
2022/03/31 09:34:50;;;;;;;2.70;2.38;;;;;;;3.70;100.00;100052.56;5003823;28;20541;-42
2022/03/31 09:37:16;;;;;;;4.22;2.60;;;;;;;3.70;100.00;100047.28;5010993;28;20049;-44
2022/03/31 09:39:42;;;;;;;3.80;2.78;;;;;;;3.72;100.00;100054.09;5028620;28;20032;-42
2022/03/31 09:42:12;;;;;;;3.05;2.70;;;;;;;3.81;100.00;100051.63;5012051;28;20621;-41
2022/03/31 09:44:38;;;;;;;4.10;2.60;;;;;;;3.86;100.00;100052.88;5013769;28;20084;-43
2022/03/31 09:47:03;;;;;;;5.75;3.50;;;;;;;3.94;100.00;100046.91;5011514;28;20595;-43
2022/03/31 09:49:28;;;;;;;3.00;2.70;;;;;;;3.97;100.00;100046.66;5002698;28;20685;-42
2022/03/31 09:51:59;;;;;;;3.90;2.80;;;;;;;4.03;100.00;100048.72;5011454;28;20113;-43
2022/03/31 09:54:26;;;;;;;3.83;2.92;;;;;;;4.04;100.00;100042.47;5012830;28;20468;-43
2022/03/31 09:56:53;;;;;;;3.58;2.95;;;;;;;4.10;100.00;100039.25;5009535;28;20045;-43
2022/03/31 09:59:19;;;;;;;3.22;2.72;;;;;;;4.19;100.00;100045.53;4993398;28;20503;-45
2022/03/31 10:01:45;;;;;;;5.00;3.03;;;;;;;4.16;100.00;100043.16;4996758;28;20052;-44
2022/03/31 10:04:12;;;;;;;3.50;2.92;;;;;;;4.24;100.00;100043.31;5008852;28;20037;-46
2022/03/31 10:06:39;;;;;;;2.88;2.55;;;;;;;4.26;100.00;100036.06;5012011;28;20184;-41
2022/03/31 10:09:07;;;;;;;5.13;3.33;;;;;;;4.40;100.00;100036.63;5012843;28;20025;-45
2022/03/31 10:11:34;;;;;;;4.50;2.80;;;;;;;4.69;100.00;100041.84;5007125;28;20068;-41
2022/03/31 10:14:25;;;;;;;4.13;2.97;;;;;;;5.02;100.00;100037.00;5008846;28;20376;-41
2022/03/31 10:17:05;;;;;;;3.17;2.88;;;;;;;5.13;100.00;100038.66;5012541;28;20358;-47
2022/03/31 10:19:36;;;;;;;5.38;3.00;;;;;;;5.23;100.00;100042.91;5014560;28;20216;-47
2022/03/31 10:22:03;;;;;;;3.25;2.80;;;;;;;5.26;100.00;100044.44;5013698;28;20623;-47
2022/03/31 10:24:47;;;;;;;2.95;2.53;;;;;;;5.17;100.00;100046.13;5015029;28;20049;-48
2022/03/31 10:27:24;;;;;;;4.50;2.53;;;;;;;5.01;100.00;100041.47;5013305;28;20030;-46
2022/03/31 10:29:49;;;;;;;2.72;2.53;;;;;;;4.83;100.00;100037.91;5013308;28;20100;-48
2022/03/31 10:32:21;;;;;;;5.10;2.67;;;;;;;4.75;100.00;100041.28;5027012;28;20477;-49
2022/03/31 10:34:48;;;;;;;3.15;2.85;;;;;;;4.67;100.00;100041.16;5013184;28;20120;-48
2022/03/31 10:37:17;;;;;;;3.05;2.70;;;;;;;4.58;100.00;100039.34;5013075;28;20057;-49
2022/03/31 10:39:52;;;;;;;3.20;2.90;;;;;;;4.53;100.00;100031.00;5029864;28;20490;-46
2022/03/31 10:42:18;;;;;;;4.20;3.17;;;;;;;4.56;100.00;100036.00;5012449;28;20491;-47
2022/03/31 10:44:43;;;;;;;3.78;2.97;;;;;;;4.47;100.00;100037.72;5014524;28;20112;-48
2022/03/31 10:47:09;;;;;;;4.60;3.30;;;;;;;4.49;100.00;100033.94;5013841;28;20090;-46
2022/03/31 10:49:36;;;;;;;3.42;3.13;;;;;;;4.40;100.00;100026.88;5014962;28;20132;-46
2022/03/31 10:52:19;;;;;;;3.83;3.28;;;;;;;4.42;100.00;100034.66;5013381;28;20273;-48
2022/03/31 10:54:44;;;;;;;3.95;3.10;;;;;;;4.42;100.00;100037.31;5014327;28;20059;-46
2022/03/31 10:57:15;;;;;;;5.57;2.85;;;;;;;4.43;100.00;100039.81;5011885;28;20025;-47
2022/03/31 10:59:43;;;;;;;3.97;3.10;;;;;;;4.42;100.00;100035.47;5015052;28;20544;-48
2022/03/31 11:02:15;;;;;;;4.35;3.33;;;;;;;4.46;100.00;100028.09;5012836;28;20017;-48
2022/03/31 11:04:51;;;;;;;3.67;3.30;;;;;;;4.45;100.00;100027.28;5014728;28;20067;-48
2022/03/31 11:07:19;;;;;;;6.15;3.40;;;;;;;4.53;100.00;100026.56;5014629;28;20440;-47
2022/03/31 11:09:45;;;;;;;3.97;2.90;;;;;;;4.64;100.00;100017.63;5013363;28;20154;-48
2022/03/31 11:12:26;;;;;;;3.15;2.85;;;;;;;4.79;100.00;100013.56;5014949;28;20052;-50
2022/03/31 11:14:56;;;;;;;3.17;2.80;;;;;;;4.92;100.00;100022.97;5013172;28;20045;-48
2022/03/31 11:17:22;;;;;;;3.22;2.92;;;;;;;5.04;100.00;100019.16;4997622;28;20030;-49
2022/03/31 11:19:49;;;;;;;3.08;2.60;;;;;;;5.15;100.00;100021.63;4997041;28;20109;-48
2022/03/31 11:22:22;;;;;;;2.97;2.60;;;;;;;5.09;100.00;100016.06;4997651;28;20058;-49
2022/03/31 11:24:50;;;;;;;3.47;2.92;;;;;;;5.01;100.00;100012.34;4998039;28;20351;-49
2022/03/31 11:27:17;;;;;;;3.15;2.85;;;;;;;4.99;100.00;100011.66;4997908;28;20041;-50
2022/03/31 11:29:42;;;;;;;4.60;3.00;;;;;;;4.86;100.00;100003.22;4997581;28;20458;-48